Elst, Netherlands
Current Conditions -  °F | °C
As of 8:25 PM on Tuesday 21 Oct 2014 (Local Time) from EHDL Reporting Station
Moderate Rain Moderate Rain  
Wind Chill: 40°   Ceiling: 4200
Heat Index: 48°   Visibility: 6mi
Dew Point: 41°   Wind: 30mph
Humidity: 76%   Direction: 290°WNW
Pressure: 29.62"   Gusts: 52mph
Location:  51.92°N, 5.84°E
Report Text: EHDL 211825Z AUTO 29026G45KT 9999 DZRA FEW031 SCT037 BKN042 09/05 Q1003 BLU RMK TS INFO NOT AVBL
Loading
Personal Weather Stations






























Interactive Weather Map
Tropical Storm Tracking
New forecast layout! Learn more

10-Day Weather Forecast

Advertisements
Track Severe Weather on mobile